Time;durP1;ratioP1;P1;durP2;ratioP2;P2;SDS_P1;SDS_P2;PMS_P1;PMS_P2;Temp;Humidity;BMP_temperature;BMP_pressure;BME280_temperature;BME280_humidity;BME280_pressure;Samples;Min_cycle;Max_cycle;Signal;HPM_P1;HPM_P2
2021/12/01 00:02:12;;;;;;;51.97;14.63;;;8.50;99.90;;;;;;4921314;29;20060;-91
2021/12/01 00:04:38;;;;;;;45.30;14.85;;;8.60;99.90;;;;;;4921521;29;20046;-91
2021/12/01 00:07:07;;;;;;;50.67;13.88;;;8.60;99.90;;;;;;4921344;29;20051;-90
2021/12/01 00:09:33;;;;;;;50.38;14.80;;;8.60;99.90;;;;;;4921471;29;20079;-90
2021/12/01 00:11:58;;;;;;;51.75;14.77;;;8.60;99.90;;;;;;4921451;29;20048;-90
2021/12/01 00:14:24;;;;;;;58.30;18.77;;;8.60;99.90;;;;;;4921502;29;20055;-90
2021/12/01 00:16:50;;;;;;;63.60;16.83;;;8.70;99.90;;;;;;4921188;29;20099;-90
2021/12/01 00:19:15;;;;;;;63.78;19.40;;;8.70;99.90;;;;;;4921550;29;20059;-90
2021/12/01 00:21:41;;;;;;;65.25;19.73;;;8.70;99.90;;;;;;4938355;29;20054;-90
2021/12/01 00:24:07;;;;;;;70.70;19.85;;;8.70;99.90;;;;;;4921272;29;20472;-90
2021/12/01 00:26:33;;;;;;;68.90;21.08;;;8.70;99.90;;;;;;4921314;29;20107;-90
2021/12/01 00:28:58;;;;;;;75.45;21.58;;;8.80;99.90;;;;;;4921133;29;20039;-90
2021/12/01 00:31:24;;;;;;;75.07;23.13;;;8.80;99.90;;;;;;4938260;29;20098;-90
2021/12/01 00:33:50;;;;;;;77.25;22.08;;;8.80;99.90;;;;;;4921014;29;20494;-90
2021/12/01 00:36:16;;;;;;;70.90;22.58;;;8.70;99.90;;;;;;4921005;29;20542;-89
2021/12/01 00:38:43;;;;;;;76.78;22.23;;;8.80;99.90;;;;;;4938046;29;20110;-89
2021/12/01 00:41:10;;;;;;;75.68;23.02;;;8.80;99.90;;;;;;4920962;29;20140;-89
2021/12/01 00:43:38;;;;;;;70.75;21.08;;;8.80;99.90;;;;;;4920867;29;20051;-89
2021/12/01 00:46:22;;;;;;;65.93;22.70;;;8.70;99.90;;;;;;4920756;29;20087;-89
2021/12/01 00:48:48;;;;;;;77.82;22.13;;;8.80;99.90;;;;;;4920944;29;20505;-90
2021/12/01 00:51:16;;;;;;;66.10;19.95;;;8.80;99.90;;;;;;4920819;29;20043;-89
2021/12/01 00:53:42;;;;;;;70.35;22.10;;;8.80;99.90;;;;;;4920548;29;20475;-89
2021/12/01 00:56:08;;;;;;;53.53;17.70;;;8.80;99.90;;;;;;4920755;29;20060;-88
2021/12/01 00:58:33;;;;;;;64.50;18.88;;;8.80;99.90;;;;;;4920524;29;20047;-88
2021/12/01 01:01:01;;;;;;;67.15;19.45;;;8.80;99.90;;;;;;4920155;29;20114;-88
2021/12/01 01:03:28;;;;;;;68.00;20.00;;;8.80;99.90;;;;;;4937632;29;20115;-88
2021/12/01 01:05:54;;;;;;;62.78;19.08;;;8.80;99.90;;;;;;4920729;29;20090;-88
2021/12/01 01:08:20;;;;;;;57.90;20.25;;;8.90;99.90;;;;;;4920453;29;20043;-89
2021/12/01 01:11:08;;;;;;;53.05;19.60;;;8.90;99.90;;;;;;4920218;29;20190;-88
2021/12/01 01:16:25;;;;;;;47.45;19.10;;;8.90;99.90;;;;;;4920298;29;20092;-88
2021/12/01 01:21:34;;;;;;;51.00;18.00;;;8.90;99.90;;;;;;5122818;23;20064;-88
2021/12/01 01:24:00;;;;;;;41.00;16.55;;;8.90;99.90;;;;;;4901569;29;20048;-88
2021/12/01 01:26:27;;;;;;;39.13;17.63;;;8.90;99.90;;;;;;4901245;29;20044;-88
2021/12/01 01:28:53;;;;;;;41.88;15.68;;;9.00;99.90;;;;;;4918141;29;20056;-89
2021/12/01 01:31:20;;;;;;;34.70;13.93;;;8.90;99.90;;;;;;4901484;29;20048;-88
2021/12/01 01:33:48;;;;;;;36.60;14.50;;;9.00;99.90;;;;;;4901178;29;20129;-88
2021/12/01 01:36:14;;;;;;;35.85;14.32;;;8.90;99.90;;;;;;4918165;29;20052;-89
2021/12/01 01:38:40;;;;;;;37.47;14.85;;;8.90;99.90;;;;;;4901198;29;20044;-89
2021/12/01 01:41:09;;;;;;;32.55;13.80;;;8.90;99.90;;;;;;4901236;29;20051;-88
2021/12/01 01:43:37;;;;;;;39.40;13.85;;;8.90;99.90;;;;;;4901090;29;20484;-88
2021/12/01 01:46:04;;;;;;;48.25;14.70;;;8.90;99.90;;;;;;4900884;29;20048;-88
2021/12/01 01:48:31;;;;;;;34.15;13.98;;;8.90;99.90;;;;;;4901251;29;20048;-89
2021/12/01 01:50:59;;;;;;;36.05;12.18;;;8.90;99.90;;;;;;4901356;29;20127;-88
2021/12/01 01:53:27;;;;;;;35.03;12.07;;;9.00;99.90;;;;;;4900995;29;20080;-89
2021/12/01 01:55:56;;;;;;;34.15;11.15;;;8.90;99.90;;;;;;4917662;29;20048;-89
2021/12/01 01:58:23;;;;;;;26.75;10.27;;;8.90;99.90;;;;;;4900664;29;20087;-89
2021/12/01 02:00:53;;;;;;;35.35;11.77;;;8.90;99.90;;;;;;4900539;29;20055;-89
2021/12/01 02:03:21;;;;;;;28.98;9.52;;;8.90;99.90;;;;;;4900745;29;20092;-89
2021/12/01 02:05:47;;;;;;;24.50;9.23;;;8.90;99.90;;;;;;4899859;29;20100;-89
2021/12/01 02:08:20;;;;;;;23.70;10.35;;;9.00;99.90;;;;;;4900581;29;20052;-89
2021/12/01 02:10:49;;;;;;;;;;;8.90;99.90;;;;;;4900981;29;20527;-89
2021/12/01 02:13:20;;;;;;;29.25;7.95;;;8.90;99.90;;;;;;4900408;29;19970;-89
2021/12/01 02:15:48;;;;;;;22.35;8.27;;;9.00;99.90;;;;;;4900615;29;20493;-88
2021/12/01 02:18:15;;;;;;;23.65;7.88;;;8.90;99.90;;;;;;4917405;29;20048;-89
2021/12/01 02:21:02;;;;;;;21.55;7.65;;;8.90;99.90;;;;;;4909452;29;20099;-88
2021/12/01 02:23:29;;;;;;;25.02;7.35;;;8.90;99.90;;;;;;4919659;29;20158;-90
2021/12/01 02:25:55;;;;;;;23.40;7.90;;;8.90;99.90;;;;;;4919309;29;20414;-90
2021/12/01 02:28:20;;;;;;;20.00;6.03;;;8.90;99.90;;;;;;4919524;29;20048;-90
2021/12/01 02:30:46;;;;;;;23.00;5.75;;;8.90;99.90;;;;;;4919272;29;20054;-90
2021/12/01 02:33:12;;;;;;;20.50;5.40;;;8.90;99.90;;;;;;4919491;29;20052;-88
2021/12/01 02:35:38;;;;;;;19.13;5.75;;;9.00;99.90;;;;;;4919581;29;20430;-90
2021/12/01 02:38:04;;;;;;;16.13;5.28;;;9.00;99.90;;;;;;4919280;29;20519;-89
2021/12/01 02:40:31;;;;;;;14.70;4.90;;;9.00;99.90;;;;;;4919166;29;20415;-89
2021/12/01 02:42:56;;;;;;;13.23;4.70;;;9.00;99.90;;;;;;4919150;29;20083;-89
2021/12/01 02:45:22;;;;;;;16.58;4.50;;;9.00;99.90;;;;;;4919198;29;20079;-89
2021/12/01 02:47:48;;;;;;;18.38;5.30;;;9.00;99.90;;;;;;4919153;29;20047;-89
2021/12/01 02:50:14;;;;;;;19.98;4.78;;;9.00;99.90;;;;;;4919144;29;20047;-89
2021/12/01 02:52:40;;;;;;;22.98;6.10;;;9.00;99.90;;;;;;4919116;29;20126;-89
2021/12/01 02:55:09;;;;;;;15.30;4.47;;;8.90;99.90;;;;;;4918979;29;20043;-89
2021/12/01 02:58:04;;;;;;;20.50;5.32;;;9.00;99.90;;;;;;4918982;29;20131;-89
2021/12/01 03:00:30;;;;;;;21.60;5.30;;;9.00;99.90;;;;;;4899652;29;20060;-89
2021/12/01 03:02:56;;;;;;;16.98;5.25;;;9.00;99.90;;;;;;4919380;29;20399;-89
2021/12/01 03:05:23;;;;;;;19.10;5.20;;;9.00;99.90;;;;;;4918901;29;20050;-89
2021/12/01 03:07:49;;;;;;;17.45;5.55;;;9.00;99.90;;;;;;4918824;29;20079;-89
2021/12/01 03:10:15;;;;;;;28.63;4.40;;;9.00;99.90;;;;;;4918842;29;20134;-89
2021/12/01 03:12:41;;;;;;;27.10;5.47;;;9.00;99.90;;;;;;4919381;29;20051;-89
2021/12/01 03:15:10;;;;;;;15.27;3.85;;;9.00;99.90;;;;;;4919028;29;20555;-89
2021/12/01 03:17:36;;;;;;;12.55;3.55;;;9.00;99.90;;;;;;4920251;29;20044;-89
2021/12/01 03:20:04;;;;;;;18.60;3.35;;;9.00;99.90;;;;;;4922597;29;20063;-89
2021/12/01 03:22:30;;;;;;;13.20;2.95;;;9.10;99.90;;;;;;4922442;29;20559;-89
2021/12/01 03:24:55;;;;;;;28.15;3.42;;;9.10;99.90;;;;;;4922154;29;20131;-89
2021/12/01 03:27:21;;;;;;;20.50;4.70;;;9.10;99.90;;;;;;4922582;29;20040;-88
2021/12/01 03:29:50;;;;;;;17.30;3.60;;;9.10;99.90;;;;;;4922329;29;20444;-89
2021/12/01 03:32:16;;;;;;;16.38;3.88;;;9.20;99.90;;;;;;4922197;29;20050;-89
2021/12/01 03:34:43;;;;;;;17.70;3.33;;;9.20;99.90;;;;;;4922112;29;20055;-90
2021/12/01 03:37:10;;;;;;;12.60;2.70;;;9.20;99.90;;;;;;4922046;29;20471;-89
2021/12/01 03:39:36;;;;;;;18.27;3.10;;;9.20;99.90;;;;;;4922709;29;20047;-91
2021/12/01 03:42:02;;;;;;;15.13;3.10;;;9.20;99.90;;;;;;4922837;29;20460;-90
2021/12/01 03:44:28;;;;;;;22.80;2.92;;;9.20;99.90;;;;;;4922039;29;20483;-89
2021/12/01 03:46:54;;;;;;;10.15;2.97;;;9.20;99.90;;;;;;4939086;29;20102;-90
2021/12/01 03:49:20;;;;;;;14.20;3.78;;;9.20;99.90;;;;;;4921962;29;20388;-90
2021/12/01 03:51:46;;;;;;;11.77;2.42;;;9.20;99.90;;;;;;4921821;29;20044;-89
2021/12/01 03:54:11;;;;;;;17.58;3.28;;;9.20;99.90;;;;;;4921889;29;20050;-90
2021/12/01 03:56:37;;;;;;;16.67;3.75;;;9.20;99.90;;;;;;4921838;29;20039;-90
2021/12/01 03:59:04;;;;;;;18.20;2.80;;;9.20;99.90;;;;;;4922130;29;20043;-89
2021/12/01 04:01:30;;;;;;;21.70;2.92;;;9.20;99.90;;;;;;4921674;29;20083;-90
2021/12/01 04:03:58;;;;;;;19.80;3.63;;;9.20;99.90;;;;;;4938823;29;20043;-90
2021/12/01 04:06:24;;;;;;;16.50;2.90;;;9.20;99.90;;;;;;4921794;29;20052;-90
2021/12/01 04:08:50;;;;;;;14.50;3.67;;;9.20;99.90;;;;;;4921565;29;20053;-90
2021/12/01 04:11:16;;;;;;;21.77;3.95;;;9.20;99.90;;;;;;4921655;29;20052;-90
2021/12/01 04:13:42;;;;;;;24.75;3.95;;;9.20;99.90;;;;;;4921894;29;20047;-90
2021/12/01 04:16:07;;;;;;;21.95;3.90;;;9.20;99.90;;;;;;4921505;29;20079;-89
2021/12/01 04:18:33;;;;;;;27.23;3.42;;;9.20;99.90;;;;;;4938336;29;20047;-90
2021/12/01 04:20:59;;;;;;;20.02;2.83;;;9.20;99.90;;;;;;4926682;29;20492;-88
2021/12/01 04:23:25;;;;;;;19.77;3.40;;;9.20;99.90;;;;;;4902359;29;20063;-89
2021/12/01 04:25:51;;;;;;;25.92;5.00;;;9.20;99.90;;;;;;4902664;29;20090;-88
2021/12/01 04:28:17;;;;;;;21.77;4.78;;;9.10;99.90;;;;;;4902423;29;20390;-89
2021/12/01 04:30:43;;;;;;;20.55;3.55;;;9.10;99.90;;;;;;4901566;29;20586;-89
2021/12/01 04:33:09;;;;;;;27.83;4.28;;;9.10;99.90;;;;;;4902088;29;20131;-88
2021/12/01 04:35:35;;;;;;;27.35;3.30;;;9.10;99.90;;;;;;4902586;29;20044;-89
2021/12/01 04:38:01;;;;;;;17.08;3.67;;;9.10;99.90;;;;;;4902216;29;20063;-89
2021/12/01 04:40:27;;;;;;;24.92;3.47;;;9.10;99.90;;;;;;4902113;29;20404;-89
2021/12/01 04:42:54;;;;;;;32.13;5.00;;;9.10;99.90;;;;;;4902277;29;20091;-90
2021/12/01 04:45:21;;;;;;;22.05;3.33;;;9.10;99.90;;;;;;4902394;29;20070;-89
2021/12/01 04:47:51;;;;;;;19.83;3.05;;;9.10;99.90;;;;;;4901875;29;20048;-89
2021/12/01 04:50:19;;;;;;;20.88;3.47;;;9.10;99.90;;;;;;4901869;29;20056;-88
2021/12/01 04:52:46;;;;;;;21.33;4.30;;;9.10;99.90;;;;;;4902203;29;20048;-88
2021/12/01 04:55:12;;;;;;;18.27;2.55;;;9.10;99.90;;;;;;4901881;29;20096;-88
2021/12/01 04:57:43;;;;;;;24.20;4.30;;;9.10;99.90;;;;;;4902056;29;20135;-89
2021/12/01 05:00:11;;;;;;;13.43;2.20;;;9.20;99.90;;;;;;4918806;29;20107;-87
2021/12/01 05:02:37;;;;;;;13.10;2.15;;;9.20;99.90;;;;;;4901818;29;20436;-88
2021/12/01 05:05:03;;;;;;;16.20;3.22;;;9.20;99.90;;;;;;4901802;29;20559;-88
2021/12/01 05:07:29;;;;;;;10.60;1.90;;;9.10;99.90;;;;;;4901856;29;20044;-87
2021/12/01 05:09:56;;;;;;;12.55;2.25;;;9.10;99.90;;;;;;4901264;29;20096;-87
2021/12/01 05:12:22;;;;;;;14.82;2.10;;;9.10;99.90;;;;;;4918465;29;20067;-87
2021/12/01 05:14:48;;;;;;;9.93;1.80;;;9.10;99.90;;;;;;4901627;29;20044;-87
2021/12/01 05:17:13;;;;;;;14.73;2.78;;;9.00;99.90;;;;;;4901636;29;20448;-87
2021/12/01 05:19:39;;;;;;;13.18;2.65;;;9.00;99.90;;;;;;4901429;29;20078;-87
2021/12/01 05:22:05;;;;;;;14.35;2.30;;;9.00;99.90;;;;;;4901347;29;20059;-86
2021/12/01 05:24:32;;;;;;;7.85;2.30;;;9.00;99.90;;;;;;4901291;29;20051;-86
2021/12/01 05:26:58;;;;;;;10.60;2.20;;;9.00;99.90;;;;;;4901547;29;20056;-86
2021/12/01 05:29:25;;;;;;;6.53;1.10;;;9.00;99.90;;;;;;4918192;29;20401;-86
2021/12/01 05:31:52;;;;;;;12.93;2.13;;;9.10;99.90;;;;;;4918080;29;20067;-86
2021/12/01 05:34:18;;;;;;;6.60;1.73;;;9.10;99.90;;;;;;4918149;29;20048;-86
2021/12/01 05:36:44;;;;;;;3.97;1.48;;;9.10;99.90;;;;;;4901341;29;20484;-86
2021/12/01 05:39:10;;;;;;;3.88;1.25;;;9.10;99.90;;;;;;4901054;29;20055;-86
2021/12/01 05:41:35;;;;;;;3.63;0.80;;;9.00;99.90;;;;;;4901250;29;20058;-87
2021/12/01 05:44:01;;;;;;;3.10;1.10;;;9.00;99.90;;;;;;4900944;29;20086;-87
2021/12/01 05:46:27;;;;;;;3.08;1.02;;;8.90;99.90;;;;;;4900884;29;20076;-86
2021/12/01 05:48:54;;;;;;;2.47;1.00;;;8.90;99.90;;;;;;4900786;29;20502;-86
2021/12/01 05:51:21;;;;;;;3.05;0.93;;;8.90;99.90;;;;;;4901108;29;20049;-87
2021/12/01 05:53:48;;;;;;;2.40;0.90;;;8.90;99.90;;;;;;4917799;29;20092;-87
2021/12/01 05:56:14;;;;;;;2.20;1.00;;;8.80;99.90;;;;;;4900869;29;20064;-87
2021/12/01 05:58:40;;;;;;;1.80;0.80;;;8.90;99.90;;;;;;4917623;29;20058;-87
2021/12/01 06:01:06;;;;;;;2.05;0.80;;;8.80;99.90;;;;;;4900615;29;20131;-87
2021/12/01 06:03:32;;;;;;;4.40;0.80;;;8.80;99.90;;;;;;4900613;29;20510;-87
2021/12/01 06:05:58;;;;;;;2.08;0.63;;;8.80;99.90;;;;;;4900690;29;20044;-88
2021/12/01 06:08:23;;;;;;;1.13;0.45;;;8.80;99.90;;;;;;4900572;29;20079;-87
2021/12/01 06:10:49;;;;;;;1.83;0.57;;;8.80;99.90;;;;;;4900479;29;20099;-87
2021/12/01 06:13:17;;;;;;;4.07;0.80;;;8.80;99.90;;;;;;4900721;29;20127;-87
2021/12/01 06:15:44;;;;;;;2.65;0.80;;;8.70;99.90;;;;;;4917482;29;20130;-87
2021/12/01 06:18:11;;;;;;;2.75;0.80;;;8.70;99.90;;;;;;4900493;29;20052;-87
2021/12/01 06:20:38;;;;;;;5.18;1.10;;;8.70;99.90;;;;;;4908745;29;20064;-87
2021/12/01 06:23:04;;;;;;;5.13;1.10;;;8.70;99.90;;;;;;4919384;29;20467;-87
2021/12/01 06:25:29;;;;;;;3.53;1.40;;;8.60;99.90;;;;;;4919170;29;20064;-86
2021/12/01 06:27:56;;;;;;;2.42;0.85;;;8.70;99.90;;;;;;4936300;29;20102;-87
2021/12/01 06:30:23;;;;;;;2.97;0.90;;;8.60;99.90;;;;;;4919147;29;20538;-87
2021/12/01 06:32:52;;;;;;;5.65;1.15;;;8.60;99.90;;;;;;4919489;29;20040;-87
2021/12/01 06:35:19;;;;;;;2.35;1.10;;;8.60;99.90;;;;;;4919331;29;20048;-87
2021/12/01 06:37:46;;;;;;;5.95;2.00;;;8.60;99.90;;;;;;4919484;29;20122;-87
2021/12/01 06:40:13;;;;;;;5.93;2.63;;;8.60;99.90;;;;;;4919090;29;20052;-87
2021/12/01 06:42:39;;;;;;;6.88;2.92;;;8.60;99.90;;;;;;4919105;29;20064;-87
2021/12/01 06:45:07;;;;;;;5.85;2.95;;;8.60;99.90;;;;;;4919354;29;20040;-87
2021/12/01 06:47:32;;;;;;;8.63;3.88;;;8.60;99.90;;;;;;4936615;29;20059;-87
2021/12/01 06:49:59;;;;;;;7.10;2.78;;;8.60;99.90;;;;;;4919057;29;20048;-88
2021/12/01 06:52:28;;;;;;;7.13;2.97;;;8.60;99.90;;;;;;4920387;29;20044;-87
2021/12/01 06:54:54;;;;;;;8.25;3.92;;;8.60;99.90;;;;;;4923334;29;20051;-88
2021/12/01 06:57:20;;;;;;;6.78;2.95;;;8.60;99.90;;;;;;4922992;29;20048;-88
2021/12/01 06:59:46;;;;;;;7.03;2.65;;;8.60;99.90;;;;;;4922967;29;20159;-88
2021/12/01 07:02:12;;;;;;;5.88;2.17;;;8.60;99.90;;;;;;4922852;29;20135;-87
2021/12/01 07:04:38;;;;;;;7.47;2.25;;;8.60;99.90;;;;;;4939731;29;20395;-89
2021/12/01 07:07:04;;;;;;;8.13;2.70;;;8.60;99.90;;;;;;4922768;29;20483;-88
2021/12/01 07:09:30;;;;;;;9.18;3.75;;;8.60;99.90;;;;;;4922427;29;20052;-89
2021/12/01 07:11:55;;;;;;;10.57;4.30;;;8.60;99.90;;;;;;4922495;29;20054;-89
2021/12/01 07:14:22;;;;;;;9.95;3.90;;;8.60;99.90;;;;;;4922676;29;20035;-88
2021/12/01 07:16:48;;;;;;;9.23;4.40;;;8.60;99.90;;;;;;4922342;29;20055;-88
2021/12/01 07:19:14;;;;;;;14.10;5.53;;;8.60;99.90;;;;;;4922464;29;20061;-88
2021/12/01 07:21:40;;;;;;;11.95;4.93;;;8.70;99.90;;;;;;4922155;29;20063;-88
2021/12/01 07:24:07;;;;;;;9.77;4.95;;;8.60;99.90;;;;;;4922197;29;20462;-88
2021/12/01 07:26:34;;;;;;;12.65;5.22;;;8.70;99.90;;;;;;4922519;29;20059;-87
2021/12/01 07:28:59;;;;;;;14.98;5.15;;;8.70;99.90;;;;;;4922190;29;20051;-88
2021/12/01 07:31:25;;;;;;;14.73;4.97;;;8.70;99.90;;;;;;4922510;29;20048;-87
2021/12/01 07:33:51;;;;;;;16.02;6.40;;;8.70;99.90;;;;;;4922195;29;20044;-87
2021/12/01 07:36:17;;;;;;;12.82;5.60;;;8.70;99.90;;;;;;4921941;29;20107;-88
2021/12/01 07:38:43;;;;;;;15.32;5.22;;;8.60;99.90;;;;;;4921774;29;20055;-87
2021/12/01 07:41:09;;;;;;;16.52;5.05;;;8.70;99.90;;;;;;4921881;29;20503;-86
2021/12/01 07:43:36;;;;;;;15.05;5.85;;;8.70;99.90;;;;;;4921727;29;20484;-88
2021/12/01 07:46:02;;;;;;;13.30;4.90;;;8.70;99.90;;;;;;4921904;29;20058;-87
2021/12/01 07:48:29;;;;;;;14.85;5.70;;;8.70;99.90;;;;;;4921090;29;20039;-87
2021/12/01 07:50:55;;;;;;;12.57;4.72;;;8.70;99.90;;;;;;4921829;29;20059;-87
2021/12/01 07:53:22;;;;;;;18.60;5.60;;;8.80;99.90;;;;;;4922155;29;20044;-87
2021/12/01 07:55:48;;;;;;;14.70;4.30;;;8.70;99.90;;;;;;4921789;29;20052;-87
2021/12/01 07:58:14;;;;;;;18.92;5.05;;;8.70;99.90;;;;;;4922101;29;20069;-87
2021/12/01 08:00:40;;;;;;;21.23;6.25;;;8.70;99.90;;;;;;4921704;29;20473;-87
2021/12/01 08:03:05;;;;;;;14.57;5.43;;;8.80;99.90;;;;;;4921265;29;20566;-87
2021/12/01 08:05:32;;;;;;;19.40;6.07;;;8.80;99.90;;;;;;4920726;29;20471;-87
2021/12/01 08:07:58;;;;;;;12.43;3.92;;;8.90;99.90;;;;;;4921716;29;20051;-87
2021/12/01 08:10:24;;;;;;;10.18;2.88;;;8.90;99.90;;;;;;4921210;29;20415;-86
2021/12/01 08:12:51;;;;;;;11.98;2.28;;;8.80;99.90;;;;;;4921458;29;20047;-87
2021/12/01 08:15:17;;;;;;;9.32;1.40;;;8.80;99.90;;;;;;4921435;29;20115;-87
2021/12/01 08:17:42;;;;;;;13.05;2.35;;;8.80;99.90;;;;;;4921278;29;20052;-87
2021/12/01 08:20:09;;;;;;;15.82;4.10;;;8.80;99.90;;;;;;4920939;29;20071;-87
2021/12/01 08:22:35;;;;;;;10.52;1.70;;;8.70;99.90;;;;;;4921154;29;20094;-89
2021/12/01 08:25:02;;;;;;;10.23;2.10;;;8.70;99.90;;;;;;4921097;29;20399;-91
2021/12/01 08:27:29;;;;;;;15.00;3.78;;;8.60;99.90;;;;;;4921484;29;20043;-89
2021/12/01 08:29:55;;;;;;;27.85;4.40;;;8.60;99.90;;;;;;4916888;29;20048;-88
2021/12/01 08:32:22;;;;;;;25.10;3.97;;;8.60;99.90;;;;;;4909997;29;20139;-88
2021/12/01 08:34:50;;;;;;;19.90;2.42;;;8.60;99.90;;;;;;4901871;29;20388;-87
2021/12/01 08:37:18;;;;;;;14.02;2.30;;;8.60;99.90;;;;;;4901978;29;20522;-87
2021/12/01 08:39:48;;;;;;;17.50;2.80;;;8.50;99.90;;;;;;4902066;29;20048;-89
2021/12/01 08:42:34;;;;;;;15.55;1.90;;;8.50;99.90;;;;;;4902227;29;20429;-91
2021/12/01 08:45:01;;;;;;;14.48;2.90;;;8.50;99.90;;;;;;4901497;29;20167;-88
2021/12/01 08:47:29;;;;;;;12.60;1.60;;;8.60;99.90;;;;;;4902110;29;20060;-87
2021/12/01 08:49:55;;;;;;;9.82;2.70;;;8.60;99.90;;;;;;4901474;29;20048;-88
2021/12/01 08:52:23;;;;;;;8.48;1.60;;;8.60;99.90;;;;;;4901589;29;20052;-88
2021/12/01 08:54:49;;;;;;;11.55;1.48;;;8.60;99.90;;;;;;4901642;29;20037;-89
2021/12/01 08:57:14;;;;;;;13.52;2.03;;;8.60;99.90;;;;;;4901340;29;20214;-89
2021/12/01 08:59:41;;;;;;;15.88;2.42;;;8.50;99.90;;;;;;4901386;29;20044;-89
2021/12/01 09:02:07;;;;;;;13.40;1.90;;;8.50;99.90;;;;;;4901290;29;20516;-90
2021/12/01 09:04:32;;;;;;;12.32;3.22;;;8.50;99.90;;;;;;4901827;29;20083;-90
2021/12/01 09:06:58;;;;;;;11.82;1.80;;;8.50;99.90;;;;;;4901231;29;20427;-88
2021/12/01 09:09:24;;;;;;;23.52;3.05;;;8.50;99.90;;;;;;4901384;29;20063;-88
2021/12/01 09:11:54;;;;;;;17.80;2.38;;;8.50;99.90;;;;;;4901108;29;20048;-90
2021/12/01 09:14:25;;;;;;;22.58;2.05;;;8.50;99.90;;;;;;4903093;29;20081;-90
2021/12/01 09:16:52;;;;;;;20.45;2.42;;;8.50;99.90;;;;;;4900836;29;20044;-89
2021/12/01 09:19:19;;;;;;;16.73;2.70;;;8.40;99.90;;;;;;4916992;29;20047;-90
2021/12/01 09:21:46;;;;;;;12.50;2.33;;;8.40;99.90;;;;;;4900904;29;20064;-90
2021/12/01 09:24:14;;;;;;;19.35;1.92;;;8.40;99.90;;;;;;4911123;29;20483;-90
2021/12/01 09:26:40;;;;;;;15.50;2.05;;;8.40;99.90;;;;;;4916350;29;20054;-89
2021/12/01 09:29:06;;;;;;;13.80;2.47;;;8.40;99.90;;;;;;4920407;29;20043;-90
2021/12/01 09:31:33;;;;;;;11.45;1.33;;;8.40;99.90;;;;;;4920083;29;20062;-90
2021/12/01 09:33:59;;;;;;;12.50;1.40;;;8.40;99.90;;;;;;4919913;29;20069;-89
2021/12/01 09:36:24;;;;;;;18.75;3.70;;;8.50;99.90;;;;;;4919965;29;20458;-89
2021/12/01 09:38:51;;;;;;;15.27;2.08;;;8.50;99.90;;;;;;4919394;29;20488;-90
2021/12/01 09:41:17;;;;;;;10.88;1.48;;;8.60;99.90;;;;;;4919768;29;20063;-90
2021/12/01 09:43:43;;;;;;;12.63;2.15;;;8.60;99.90;;;;;;4919558;29;20550;-89
2021/12/01 09:46:09;;;;;;;17.58;2.30;;;8.60;99.90;;;;;;4912826;29;20047;-90
2021/12/01 09:48:41;;;;;;;14.85;1.98;;;8.70;99.90;;;;;;4900808;29;20396;-90
2021/12/01 09:51:09;;;;;;;8.10;1.58;;;8.60;99.90;;;;;;4900499;29;20052;-89
2021/12/01 09:53:38;;;;;;;13.18;1.35;;;8.60;99.90;;;;;;4899414;29;20103;-92
2021/12/01 09:56:04;;;;;;;17.67;1.60;;;8.70;99.90;;;;;;4898701;29;20087;-89
2021/12/01 09:58:31;;;;;;;13.98;2.80;;;8.60;99.90;;;;;;4898767;29;20044;-90
2021/12/01 10:01:07;;;;;;;17.55;2.33;;;8.60;99.90;;;;;;4899826;29;20079;-89
2021/12/01 10:03:33;;;;;;;16.80;2.67;;;8.60;99.90;;;;;;4900537;29;20060;-91
2021/12/01 10:06:03;;;;;;;18.15;2.42;;;8.60;99.90;;;;;;4900486;29;20043;-89
2021/12/01 10:08:37;;;;;;;15.63;2.63;;;8.60;99.90;;;;;;4900848;29;20051;-89
2021/12/01 10:11:06;;;;;;;22.75;2.78;;;8.70;99.90;;;;;;4900310;29;20123;-89
2021/12/01 10:13:34;;;;;;;24.77;3.13;;;8.80;99.90;;;;;;4900311;29;20055;-88
2021/12/01 10:16:03;;;;;;;25.30;2.83;;;8.80;99.90;;;;;;4900397;29;20056;-89
2021/12/01 10:18:42;;;;;;;16.35;2.28;;;8.90;99.90;;;;;;4900251;29;20099;-89
2021/12/01 10:21:21;;;;;;;19.52;2.60;;;8.90;99.90;;;;;;4896978;29;20108;-88
2021/12/01 10:23:54;;;;;;;21.20;2.95;;;8.90;99.90;;;;;;4897209;29;20138;-89
2021/12/01 10:26:24;;;;;;;19.55;1.83;;;8.90;99.90;;;;;;4897192;29;20063;-89
2021/12/01 10:28:56;;;;;;;14.65;2.28;;;8.90;99.90;;;;;;4896878;29;20053;-89
2021/12/01 10:31:34;;;;;;;16.50;1.98;;;8.90;99.90;;;;;;4897811;29;20058;-89
2021/12/01 10:34:32;;;;;;;13.38;2.00;;;8.80;99.90;;;;;;4897083;29;20049;-89
2021/12/01 10:37:28;;;;;;;21.40;3.28;;;8.80;99.90;;;;;;4897282;29;20078;-89
2021/12/01 10:40:17;;;;;;;20.10;2.28;;;8.60;99.90;;;;;;4897516;29;20481;-89
2021/12/01 10:43:00;;;;;;;31.02;4.43;;;8.50;99.90;;;;;;4897470;29;20056;-90
2021/12/01 10:45:35;;;;;;;19.67;2.20;;;8.50;99.90;;;;;;4897312;29;20056;-89
2021/12/01 10:48:03;;;;;;;25.52;3.60;;;8.50;99.90;;;;;;4897296;29;20048;-89
2021/12/01 10:50:31;;;;;;;27.48;4.43;;;8.50;99.90;;;;;;4897066;29;20428;-89
2021/12/01 10:53:12;;;;;;;30.75;4.07;;;8.60;99.90;;;;;;4896883;29;20100;-90
2021/12/01 10:56:00;;;;;;;25.60;4.28;;;8.60;99.90;;;;;;4896939;29;20057;-89
2021/12/01 10:58:39;;;;;;;29.08;5.03;;;8.70;99.90;;;;;;4896901;29;20048;-89
2021/12/01 11:01:17;;;;;;;32.28;4.40;;;8.70;99.90;;;;;;4896838;29;20508;-89
2021/12/01 11:03:45;;;;;;;28.77;4.47;;;8.60;99.90;;;;;;4896918;29;20070;-90
2021/12/01 11:06:19;;;;;;;32.00;3.72;;;8.60;99.90;;;;;;4896713;29;20484;-89
2021/12/01 11:08:48;;;;;;;21.50;3.42;;;8.50;99.90;;;;;;4896881;29;20059;-90
2021/12/01 11:11:17;;;;;;;30.83;3.78;;;8.40;99.90;;;;;;4896662;29;20405;-90
2021/12/01 11:13:46;;;;;;;30.45;3.40;;;8.30;99.90;;;;;;4896907;29;20048;-88
2021/12/01 11:16:14;;;;;;;28.27;4.53;;;8.30;99.90;;;;;;4896702;29;20445;-89
2021/12/01 11:18:43;;;;;;;27.23;4.72;;;8.20;99.90;;;;;;4897002;29;20041;-90
2021/12/01 11:21:16;;;;;;;20.45;3.50;;;8.30;99.90;;;;;;4896756;29;20078;-89
2021/12/01 11:23:48;;;;;;;23.98;3.63;;;8.10;99.90;;;;;;4898176;29;20057;-90
2021/12/01 11:26:19;;;;;;;20.58;3.95;;;8.10;99.90;;;;;;4897073;29;20056;-89
2021/12/01 11:29:15;;;;;;;40.45;4.25;;;8.10;99.90;;;;;;4898354;29;20124;-90
2021/12/01 11:31:46;;;;;;;33.22;3.88;;;8.00;99.90;;;;;;4894978;29;20109;-90
2021/12/01 11:34:15;;;;;;;33.72;5.75;;;8.00;99.90;;;;;;4896693;29;20053;-88
2021/12/01 11:36:46;;;;;;;25.70;3.53;;;7.90;99.90;;;;;;4896807;29;20173;-93
2021/12/01 11:39:26;;;;;;;25.13;4.28;;;7.90;99.90;;;;;;4899777;29;20068;-89
2021/12/01 11:41:53;;;;;;;21.65;3.75;;;7.80;99.90;;;;;;4899925;29;20572;-90
2021/12/01 11:44:20;;;;;;;23.25;3.28;;;7.80;99.90;;;;;;4899746;29;20100;-90
2021/12/01 11:46:48;;;;;;;26.40;3.38;;;7.90;99.90;;;;;;4900022;29;20507;-90
2021/12/01 11:49:21;;;;;;;31.75;4.38;;;7.90;99.90;;;;;;4900163;29;20136;-93
2021/12/01 11:51:58;;;;;;;24.77;3.55;;;7.90;99.90;;;;;;4900391;29;20139;-89
2021/12/01 11:54:26;;;;;;;21.52;3.67;;;7.90;99.90;;;;;;4900030;29;20040;-89
2021/12/01 11:57:06;;;;;;;29.42;5.38;;;7.90;99.90;;;;;;4899950;29;20143;-90
2021/12/01 11:59:36;;;;;;;28.83;3.95;;;7.90;99.90;;;;;;4899879;29;20036;-92
2021/12/01 12:02:07;;;;;;;26.20;5.13;;;7.80;99.90;;;;;;4899759;29;20047;-91
2021/12/01 12:04:51;;;;;;;14.95;2.03;;;7.80;99.90;;;;;;4900100;29;20052;-90
2021/12/01 12:07:19;;;;;;;;;;;7.80;99.90;;;;;;4900203;29;20083;-90
2021/12/01 12:10:18;;;;;;;22.50;3.25;;;7.80;99.90;;;;;;4899420;29;20335;-91
2021/12/01 12:13:07;;;;;;;18.77;3.80;;;7.80;99.90;;;;;;4899530;29;20057;-91
2021/12/01 12:15:52;;;;;;;23.50;3.55;;;7.80;99.90;;;;;;4899359;29;20053;-90
2021/12/01 12:18:34;;;;;;;22.17;3.83;;;7.80;99.90;;;;;;4899535;29;20045;-91
2021/12/01 12:21:17;;;;;;;20.15;4.03;;;7.80;99.90;;;;;;4899209;29;20095;-91
2021/12/01 12:23:46;;;;;;;22.25;3.08;;;7.70;99.90;;;;;;4899340;29;20472;-90
2021/12/01 12:26:12;;;;;;;13.65;2.65;;;7.70;99.90;;;;;;4899382;29;20044;-91
2021/12/01 12:28:42;;;;;;;20.33;2.50;;;7.70;99.90;;;;;;4900155;29;20051;-90
2021/12/01 12:31:20;;;;;;;24.02;3.03;;;7.70;99.90;;;;;;4899033;29;20059;-90
2021/12/01 12:33:52;;;;;;;19.95;3.30;;;7.60;99.90;;;;;;4899118;29;20401;-91
2021/12/01 12:36:34;;;;;;;22.38;3.20;;;7.60;99.90;;;;;;4899546;29;20048;-91
2021/12/01 12:39:07;;;;;;;21.67;3.67;;;7.50;99.90;;;;;;4898987;29;20049;-90
2021/12/01 12:42:01;;;;;;;17.25;3.00;;;7.50;99.90;;;;;;4899298;29;20048;-90
2021/12/01 12:44:36;;;;;;;18.83;2.60;;;7.50;99.90;;;;;;4898808;29;20092;-90
2021/12/01 12:47:07;;;;;;;17.05;2.97;;;7.50;99.90;;;;;;4899325;29;20084;-91
2021/12/01 12:49:41;;;;;;;19.25;3.05;;;7.50;99.90;;;;;;4898302;29;20095;-91
2021/12/01 12:52:48;;;;;;;21.75;3.42;;;7.50;99.90;;;;;;4899298;29;20127;-91
2021/12/01 12:55:23;;;;;;;21.80;3.75;;;7.50;99.90;;;;;;4808771;29;20054;-90
2021/12/01 12:58:01;;;;;;;20.45;3.13;;;7.40;99.90;;;;;;4889413;29;20104;-93
2021/12/01 13:00:47;;;;;;;30.50;5.28;;;7.40;99.90;;;;;;4903127;29;20155;-94
2021/12/01 13:03:24;;;;;;;27.38;3.95;;;7.40;99.90;;;;;;4902860;29;20044;-93